sensor_id;sensor_type;location;lat;lon;timestamp;pressure;altitude;pressure_sealevel;temperature;humidity
2188;BME280;1100;52.014;8.540;2023-04-01T00:01:55;98001.66;;;7.50;95.64
2188;BME280;1100;52.014;8.540;2023-04-01T00:04:21;97999.38;;;7.48;95.96
2188;BME280;1100;52.014;8.540;2023-04-01T00:06:47;98005.69;;;7.49;95.77
2188;BME280;1100;52.014;8.540;2023-04-01T00:09:13;97999.69;;;7.51;95.98
2188;BME280;1100;52.014;8.540;2023-04-01T00:11:39;97994.16;;;7.51;96.26
2188;BME280;1100;52.014;8.540;2023-04-01T00:14:04;97995.66;;;7.52;96.08
2188;BME280;1100;52.014;8.540;2023-04-01T00:16:30;97996.13;;;7.50;96.22
2188;BME280;1100;52.014;8.540;2023-04-01T00:18:55;97998.16;;;7.50;96.11
2188;BME280;1100;52.014;8.540;2023-04-01T00:21:21;97997.38;;;7.49;95.95
2188;BME280;1100;52.014;8.540;2023-04-01T00:23:47;98000.16;;;7.49;96.15
2188;BME280;1100;52.014;8.540;2023-04-01T00:26:13;97994.63;;;7.49;96.24
2188;BME280;1100;52.014;8.540;2023-04-01T00:28:39;97995.09;;;7.47;96.06
2188;BME280;1100;52.014;8.540;2023-04-01T00:31:09;97998.31;;;7.46;96.30
2188;BME280;1100;52.014;8.540;2023-04-01T00:33:35;97994.03;;;7.45;96.08
2188;BME280;1100;52.014;8.540;2023-04-01T00:36:12;97992.50;;;7.44;96.11
2188;BME280;1100;52.014;8.540;2023-04-01T00:38:38;97992.50;;;7.44;96.55
2188;BME280;1100;52.014;8.540;2023-04-01T00:41:04;97994.31;;;7.47;96.50
2188;BME280;1100;52.014;8.540;2023-04-01T00:43:30;97993.09;;;7.48;96.36
2188;BME280;1100;52.014;8.540;2023-04-01T00:45:56;97985.84;;;7.51;96.42
2188;BME280;1100;52.014;8.540;2023-04-01T00:48:23;97983.56;;;7.49;96.49
2188;BME280;1100;52.014;8.540;2023-04-01T00:51:16;97990.34;;;7.48;96.12
2188;BME280;1100;52.014;8.540;2023-04-01T00:53:43;97987.56;;;7.48;96.27
2188;BME280;1100;52.014;8.540;2023-04-01T00:56:30;97982.03;;;7.48;96.15
2188;BME280;1100;52.014;8.540;2023-04-01T00:59:00;97988.78;;;7.47;96.10
2188;BME280;1100;52.014;8.540;2023-04-01T01:01:27;97972.50;;;7.49;96.17
2188;BME280;1100;52.014;8.540;2023-04-01T01:03:54;97979.28;;;7.48;96.25
2188;BME280;1100;52.014;8.540;2023-04-01T01:11:51;97977.25;;;7.48;96.26
2188;BME280;1100;52.014;8.540;2023-04-01T01:14:32;97975.56;;;7.51;96.50
2188;BME280;1100;52.014;8.540;2023-04-01T01:17:18;97973.38;;;7.55;96.46
2188;BME280;1100;52.014;8.540;2023-04-01T01:31:20;97967.69;;;7.59;96.54
2188;BME280;1100;52.014;8.540;2023-04-01T01:36:27;97978.44;;;7.57;96.32
2188;BME280;1100;52.014;8.540;2023-04-01T01:38:54;97981.22;;;7.57;96.44
2188;BME280;1100;52.014;8.540;2023-04-01T01:41:23;97970.63;;;7.55;96.46
2188;BME280;1100;52.014;8.540;2023-04-01T01:43:53;97971.41;;;7.56;96.26
2188;BME280;1100;52.014;8.540;2023-04-01T01:46:24;97976.16;;;7.55;96.13
2188;BME280;1100;52.014;8.540;2023-04-01T01:48:51;97972.16;;;7.56;96.58
2188;BME280;1100;52.014;8.540;2023-04-01T01:51:18;97971.66;;;7.58;96.82
2188;BME280;1100;52.014;8.540;2023-04-01T01:53:45;97976.72;;;7.59;96.68
2188;BME280;1100;52.014;8.540;2023-04-01T01:56:11;97960.91;;;7.60;96.55
2188;BME280;1100;52.014;8.540;2023-04-01T01:59:02;97974.63;;;7.54;96.31
2188;BME280;1100;52.014;8.540;2023-04-01T02:01:31;97971.72;;;7.48;96.07
2188;BME280;1100;52.014;8.540;2023-04-01T02:04:02;97971.44;;;7.46;96.45
2188;BME280;1100;52.014;8.540;2023-04-01T02:06:30;97969.63;;;7.43;96.41
2188;BME280;1100;52.014;8.540;2023-04-01T02:09:00;97971.03;;;7.39;96.23
2188;BME280;1100;52.014;8.540;2023-04-01T02:11:46;97968.59;;;7.31;95.78
2188;BME280;1100;52.014;8.540;2023-04-01T02:14:22;97968.19;;;7.23;96.06
2188;BME280;1100;52.014;8.540;2023-04-01T02:16:58;97965.13;;;7.21;96.02
2188;BME280;1100;52.014;8.540;2023-04-01T02:19:29;97962.84;;;7.20;95.93
2188;BME280;1100;52.014;8.540;2023-04-01T02:22:01;97952.72;;;7.17;96.09
2188;BME280;1100;52.014;8.540;2023-04-01T02:24:30;97964.06;;;7.19;96.05
2188;BME280;1100;52.014;8.540;2023-04-01T02:26:55;97961.03;;;7.17;96.27
2188;BME280;1100;52.014;8.540;2023-04-01T02:29:23;97962.06;;;7.19;96.32
2188;BME280;1100;52.014;8.540;2023-04-01T02:31:50;97972.66;;;7.21;96.51
2188;BME280;1100;52.014;8.540;2023-04-01T02:34:17;97963.13;;;7.22;96.74
2188;BME280;1100;52.014;8.540;2023-04-01T02:36:43;97959.63;;;7.21;96.35
2188;BME280;1100;52.014;8.540;2023-04-01T02:39:09;97960.34;;;7.22;96.71
2188;BME280;1100;52.014;8.540;2023-04-01T02:41:42;97961.91;;;7.23;96.71
2188;BME280;1100;52.014;8.540;2023-04-01T02:44:09;97962.66;;;7.23;96.65
2188;BME280;1100;52.014;8.540;2023-04-01T02:46:37;97965.72;;;7.26;96.62
2188;BME280;1100;52.014;8.540;2023-04-01T02:49:02;97957.44;;;7.26;96.58
2188;BME280;1100;52.014;8.540;2023-04-01T02:51:28;97961.72;;;7.27;96.95
2188;BME280;1100;52.014;8.540;2023-04-01T02:53:53;97967.56;;;7.29;96.71
2188;BME280;1100;52.014;8.540;2023-04-01T02:56:18;97964.00;;;7.28;96.72
2188;BME280;1100;52.014;8.540;2023-04-01T02:58:45;97964.00;;;7.28;96.70
2188;BME280;1100;52.014;8.540;2023-04-01T03:01:10;97971.84;;;7.30;96.53
2188;BME280;1100;52.014;8.540;2023-04-01T03:03:36;97967.09;;;7.30;96.62
2188;BME280;1100;52.014;8.540;2023-04-01T03:06:09;97970.63;;;7.31;96.67
2188;BME280;1100;52.014;8.540;2023-04-01T03:08:35;97969.84;;;7.30;96.49
2188;BME280;1100;52.014;8.540;2023-04-01T03:11:00;97966.03;;;7.28;96.36
2188;BME280;1100;52.014;8.540;2023-04-01T03:13:26;97968.03;;;7.27;96.51
2188;BME280;1100;52.014;8.540;2023-04-01T03:15:51;97968.78;;;7.28;96.66
2188;BME280;1100;52.014;8.540;2023-04-01T03:18:17;97973.84;;;7.29;96.65
2188;BME280;1100;52.014;8.540;2023-04-01T03:20:42;97965.56;;;7.29;96.75
2188;BME280;1100;52.014;8.540;2023-04-01T03:23:07;97966.03;;;7.28;96.48
2188;BME280;1100;52.014;8.540;2023-04-01T03:25:33;97974.31;;;7.28;96.33
2188;BME280;1100;52.014;8.540;2023-04-01T03:27:58;97974.78;;;7.26;96.41
2188;BME280;1100;52.014;8.540;2023-04-01T03:30:25;97973.06;;;7.29;96.85
2188;BME280;1100;52.014;8.540;2023-04-01T03:32:50;97980.44;;;7.32;96.69
2188;BME280;1100;52.014;8.540;2023-04-01T03:35:16;97981.84;;;7.27;96.46
2188;BME280;1100;52.014;8.540;2023-04-01T03:37:41;97980.00;;;7.24;96.27
2188;BME280;1100;52.014;8.540;2023-04-01T03:40:07;97974.94;;;7.22;96.35
2188;BME280;1100;52.014;8.540;2023-04-01T03:42:32;97985.22;;;7.22;96.34
2188;BME280;1100;52.014;8.540;2023-04-01T03:44:58;97978.19;;;7.21;96.55
2188;BME280;1100;52.014;8.540;2023-04-01T03:47:23;97984.94;;;7.20;96.11
2188;BME280;1100;52.014;8.540;2023-04-01T03:49:48;97986.47;;;7.21;96.45
2188;BME280;1100;52.014;8.540;2023-04-01T03:52:14;97981.41;;;7.19;96.28
2188;BME280;1100;52.014;8.540;2023-04-01T03:54:39;97988.19;;;7.18;96.31
2188;BME280;1100;52.014;8.540;2023-04-01T03:57:05;97985.41;;;7.18;96.39
2188;BME280;1100;52.014;8.540;2023-04-01T03:59:30;97992.94;;;7.18;96.63
2188;BME280;1100;52.014;8.540;2023-04-01T04:01:56;97983.13;;;7.17;96.56
2188;BME280;1100;52.014;8.540;2023-04-01T04:04:21;97987.09;;;7.16;96.79
2188;BME280;1100;52.014;8.540;2023-04-01T04:06:46;97980.06;;;7.15;96.37
2188;BME280;1100;52.014;8.540;2023-04-01T04:09:13;97986.81;;;7.14;96.46
2188;BME280;1100;52.014;8.540;2023-04-01T04:11:38;97996.63;;;7.15;96.42
2188;BME280;1100;52.014;8.540;2023-04-01T04:14:04;97992.34;;;7.14;96.24
2188;BME280;1100;52.014;8.540;2023-04-01T04:16:29;97983.75;;;7.12;96.50
2188;BME280;1100;52.014;8.540;2023-04-01T04:18:54;97986.22;;;7.09;96.37
2188;BME280;1100;52.014;8.540;2023-04-01T04:21:19;97994.81;;;7.12;96.64
2188;BME280;1100;52.014;8.540;2023-04-01T04:23:45;97995.56;;;7.12;96.32
2188;BME280;1100;52.014;8.540;2023-04-01T04:26:13;97988.50;;;7.11;96.31
2188;BME280;1100;52.014;8.540;2023-04-01T04:28:38;97989.88;;;7.16;96.61
2188;BME280;1100;52.014;8.540;2023-04-01T04:31:04;97985.13;;;7.16;96.72
2188;BME280;1100;52.014;8.540;2023-04-01T04:33:34;97984.81;;;7.14;96.63
2188;BME280;1100;52.014;8.540;2023-04-01T04:36:00;97987.09;;;7.16;96.52
2188;BME280;1100;52.014;8.540;2023-04-01T04:38:26;97991.88;;;7.15;96.61
2188;BME280;1100;52.014;8.540;2023-04-01T04:40:52;97994.66;;;7.15;96.47
2188;BME280;1100;52.014;8.540;2023-04-01T04:43:18;97992.16;;;7.17;96.61
2188;BME280;1100;52.014;8.540;2023-04-01T04:45:44;97996.31;;;7.13;96.21
2188;BME280;1100;52.014;8.540;2023-04-01T04:48:12;98006.63;;;7.12;96.70
2188;BME280;1100;52.014;8.540;2023-04-01T04:50:49;97998.19;;;7.06;96.40
2188;BME280;1100;52.014;8.540;2023-04-01T04:53:16;97999.91;;;7.04;96.40
2188;BME280;1100;52.014;8.540;2023-04-01T04:55:45;98007.59;;;7.00;96.41
2188;BME280;1100;52.014;8.540;2023-04-01T04:58:12;98005.00;;;6.96;96.36
2188;BME280;1100;52.014;8.540;2023-04-01T05:00:38;98007.91;;;6.92;96.23
2188;BME280;1100;52.014;8.540;2023-04-01T05:03:04;98014.38;;;6.89;96.26
2188;BME280;1100;52.014;8.540;2023-04-01T05:05:32;98006.84;;;6.90;96.25
2188;BME280;1100;52.014;8.540;2023-04-01T05:07:58;98009.31;;;6.88;96.28
2188;BME280;1100;52.014;8.540;2023-04-01T05:10:23;98011.31;;;6.87;96.41
2188;BME280;1100;52.014;8.540;2023-04-01T05:12:49;98014.81;;;6.88;97.01
2188;BME280;1100;52.014;8.540;2023-04-01T05:15:15;98018.06;;;6.86;96.84
2188;BME280;1100;52.014;8.540;2023-04-01T05:17:40;98025.59;;;6.85;96.59
2188;BME280;1100;52.014;8.540;2023-04-01T05:20:06;98019.75;;;6.83;96.61
2188;BME280;1100;52.014;8.540;2023-04-01T05:22:31;98021.28;;;6.84;96.80
2188;BME280;1100;52.014;8.540;2023-04-01T05:24:57;98012.25;;;6.84;96.58
2188;BME280;1100;52.014;8.540;2023-04-01T05:27:22;98025.28;;;6.83;96.62
2188;BME280;1100;52.014;8.540;2023-04-01T05:29:47;98026.06;;;6.84;96.90
2188;BME280;1100;52.014;8.540;2023-04-01T05:32:13;98019.28;;;6.85;97.06
2188;BME280;1100;52.014;8.540;2023-04-01T05:34:38;98028.34;;;6.85;96.92
2188;BME280;1100;52.014;8.540;2023-04-01T05:37:03;98025.28;;;6.83;96.90
2188;BME280;1100;52.014;8.540;2023-04-01T05:39:29;98022.53;;;6.83;96.67
2188;BME280;1100;52.014;8.540;2023-04-01T05:41:54;98021.00;;;6.82;97.05
2188;BME280;1100;52.014;8.540;2023-04-01T05:44:20;98022.66;;;6.80;96.83
2188;BME280;1100;52.014;8.540;2023-04-01T05:46:45;98019.16;;;6.79;96.97
2188;BME280;1100;52.014;8.540;2023-04-01T05:49:10;98015.94;;;6.81;97.14
2188;BME280;1100;52.014;8.540;2023-04-01T05:51:35;98022.97;;;6.82;97.44
2188;BME280;1100;52.014;8.540;2023-04-01T05:54:01;98009.63;;;6.80;97.29
2188;BME280;1100;52.014;8.540;2023-04-01T05:56:26;98022.22;;;6.81;97.23
2188;BME280;1100;52.014;8.540;2023-04-01T05:58:53;98027.72;;;6.81;97.12
2188;BME280;1100;52.014;8.540;2023-04-01T06:01:19;98017.47;;;6.82;97.45
2188;BME280;1100;52.014;8.540;2023-04-01T06:03:44;98022.97;;;6.82;96.92
2188;BME280;1100;52.014;8.540;2023-04-01T06:06:15;98026.06;;;6.84;97.12
2188;BME280;1100;52.014;8.540;2023-04-01T06:08:42;98029.88;;;6.87;96.99
2188;BME280;1100;52.014;8.540;2023-04-01T06:11:26;98026.19;;;6.90;96.99
2188;BME280;1100;52.014;8.540;2023-04-01T06:14:12;98032.47;;;6.90;97.02
2188;BME280;1100;52.014;8.540;2023-04-01T06:16:52;98033.84;;;6.95;96.88
2188;BME280;1100;52.014;8.540;2023-04-01T06:23:05;98043.94;;;7.07;96.97
2188;BME280;1100;52.014;8.540;2023-04-01T06:25:46;98047.41;;;7.17;97.09
2188;BME280;1100;52.014;8.540;2023-04-01T06:31:01;98055.81;;;7.32;96.76
2188;BME280;1100;52.014;8.540;2023-04-01T06:33:49;98061.59;;;7.44;96.75
2188;BME280;1100;52.014;8.540;2023-04-01T06:49:59;98075.91;;;7.33;96.69
2188;BME280;1100;52.014;8.540;2023-04-01T06:52:53;98075.69;;;7.21;96.75
2188;BME280;1100;52.014;8.540;2023-04-01T06:55:43;98076.75;;;7.15;96.64
2188;BME280;1100;52.014;8.540;2023-04-01T06:58:21;98077.84;;;7.08;96.71
2188;BME280;1100;52.014;8.540;2023-04-01T07:00:53;98082.00;;;7.03;96.86
2188;BME280;1100;52.014;8.540;2023-04-01T07:07:04;98082.34;;;6.96;96.66
2188;BME280;1100;52.014;8.540;2023-04-01T07:09:09;98089.38;;;6.97;96.99
2188;BME280;1100;52.014;8.540;2023-04-01T07:11:37;98084.31;;;6.95;97.17
2188;BME280;1100;52.014;8.540;2023-04-01T07:14:25;98093.38;;;6.96;97.07
2188;BME280;1100;52.014;8.540;2023-04-01T07:16:59;98095.38;;;6.95;97.06
2188;BME280;1100;52.014;8.540;2023-04-01T07:19:53;98100.44;;;6.97;96.94
2188;BME280;1100;52.014;8.540;2023-04-01T07:22:35;98106.41;;;6.95;96.88
2188;BME280;1100;52.014;8.540;2023-04-01T07:27:47;98104.09;;;7.03;96.98
2188;BME280;1100;52.014;8.540;2023-04-01T07:30:18;98096.13;;;7.05;96.95
2188;BME280;1100;52.014;8.540;2023-04-01T07:35:33;98105.00;;;7.09;97.10
2188;BME280;1100;52.014;8.540;2023-04-01T07:38:26;98115.59;;;7.11;96.91
2188;BME280;1100;52.014;8.540;2023-04-01T07:41:29;98110.50;;;7.19;96.99
2188;BME280;1100;52.014;8.540;2023-04-01T07:47:01;98114.16;;;7.34;96.97
2188;BME280;1100;52.014;8.540;2023-04-01T07:53:03;98116.59;;;7.42;96.74
2188;BME280;1100;52.014;8.540;2023-04-01T07:58:10;98126.41;;;7.43;97.09
2188;BME280;1100;52.014;8.540;2023-04-01T08:00:44;98122.41;;;7.44;96.79
2188;BME280;1100;52.014;8.540;2023-04-01T08:07:38;98134.22;;;7.54;96.99
2188;BME280;1100;52.014;8.540;2023-04-01T08:15:28;98141.38;;;7.70;97.09
2188;BME280;1100;52.014;8.540;2023-04-01T08:20:51;98155.13;;;7.89;97.07
2188;BME280;1100;52.014;8.540;2023-04-01T08:23:24;98159.72;;;7.92;96.79
2188;BME280;1100;52.014;8.540;2023-04-01T08:25:56;98161.56;;;7.95;96.96
2188;BME280;1100;52.014;8.540;2023-04-01T08:28:35;98167.97;;;8.01;97.10
2188;BME280;1100;52.014;8.540;2023-04-01T08:31:08;98163.50;;;8.04;96.62
2188;BME280;1100;52.014;8.540;2023-04-01T08:33:36;98163.03;;;8.05;96.81
2188;BME280;1100;52.014;8.540;2023-04-01T08:36:10;98168.41;;;8.09;96.83
2188;BME280;1100;52.014;8.540;2023-04-01T08:39:07;98173.78;;;8.13;96.93
2188;BME280;1100;52.014;8.540;2023-04-01T08:44:34;98173.78;;;8.13;96.69
2188;BME280;1100;52.014;8.540;2023-04-01T08:47:14;98173.25;;;8.23;96.90
2188;BME280;1100;52.014;8.540;2023-04-01T08:53:24;98178.72;;;8.33;96.61
2188;BME280;1100;52.014;8.540;2023-04-01T08:55:40;98180.97;;;8.44;96.68
2188;BME280;1100;52.014;8.540;2023-04-01T09:34:44;98207.38;;;9.64;95.93
2188;BME280;1100;52.014;8.540;2023-04-01T09:45:23;98219.31;;;10.00;95.84
2188;BME280;1100;52.014;8.540;2023-04-01T09:51:01;98223.34;;;9.84;95.28
2188;BME280;1100;52.014;8.540;2023-04-01T09:56:46;98230.22;;;9.43;94.77
2188;BME280;1100;52.014;8.540;2023-04-01T10:19:05;98238.06;;;9.30;95.70
2188;BME280;1100;52.014;8.540;2023-04-01T10:21:45;98240.28;;;9.56;95.89
2188;BME280;1100;52.014;8.540;2023-04-01T10:38:07;98245.63;;;10.41;95.25
2188;BME280;1100;52.014;8.540;2023-04-01T10:48:40;98256.25;;;9.76;95.91
2188;BME280;1100;52.014;8.540;2023-04-01T10:54:35;98260.81;;;9.34;95.14
2188;BME280;1100;52.014;8.540;2023-04-01T10:57:31;98254.47;;;9.18;95.05
2188;BME280;1100;52.014;8.540;2023-04-01T11:13:34;98270.63;;;9.59;95.56
2188;BME280;1100;52.014;8.540;2023-04-01T11:16:35;98270.22;;;9.52;95.68
2188;BME280;1100;52.014;8.540;2023-04-01T11:19:39;98274.44;;;9.47;96.16
2188;BME280;1100;52.014;8.540;2023-04-01T11:30:41;98276.25;;;9.50;96.13
2188;BME280;1100;52.014;8.540;2023-04-01T11:33:43;98280.53;;;9.51;96.20
2188;BME280;1100;52.014;8.540;2023-04-01T11:41:43;98289.94;;;9.54;96.00
2188;BME280;1100;52.014;8.540;2023-04-01T11:44:24;98292.88;;;9.50;96.12
2188;BME280;1100;52.014;8.540;2023-04-01T11:50:17;98300.25;;;9.53;96.05
2188;BME280;1100;52.014;8.540;2023-04-01T11:53:13;98305.72;;;9.63;95.92
2188;BME280;1100;52.014;8.540;2023-04-01T11:55:46;98301.81;;;9.69;96.01
2188;BME280;1100;52.014;8.540;2023-04-01T11:58:22;98305.47;;;9.76;96.08
2188;BME280;1100;52.014;8.540;2023-04-01T12:15:20;98327.84;;;9.72;95.70
2188;BME280;1100;52.014;8.540;2023-04-01T12:17:53;98330.31;;;9.70;95.69
2188;BME280;1100;52.014;8.540;2023-04-01T12:23:22;98337.75;;;9.64;95.61
2188;BME280;1100;52.014;8.540;2023-04-01T12:31:34;98333.28;;;9.81;95.95
2188;BME280;1100;52.014;8.540;2023-04-01T12:34:24;98341.22;;;9.89;96.17
2188;BME280;1100;52.014;8.540;2023-04-01T12:37:07;98354.25;;;9.82;95.87
2188;BME280;1100;52.014;8.540;2023-04-01T12:40:06;98347.34;;;9.78;95.70
2188;BME280;1100;52.014;8.540;2023-04-01T12:48:38;98353.97;;;9.80;95.60
2188;BME280;1100;52.014;8.540;2023-04-01T12:52:12;98355.19;;;9.79;96.03
2188;BME280;1100;52.014;8.540;2023-04-01T12:57:29;98362.09;;;9.84;96.12
2188;BME280;1100;52.014;8.540;2023-04-01T13:19:24;98399.34;;;9.28;95.31
2188;BME280;1100;52.014;8.540;2023-04-01T13:27:51;98400.94;;;9.20;95.54
2188;BME280;1100;52.014;8.540;2023-04-01T13:30:34;98404.47;;;9.20;95.74
2188;BME280;1100;52.014;8.540;2023-04-01T13:33:35;98401.53;;;9.24;95.91
2188;BME280;1100;52.014;8.540;2023-04-01T13:44:40;98417.66;;;9.35;95.87
2188;BME280;1100;52.014;8.540;2023-04-01T14:03:55;98433.94;;;9.08;95.57
2188;BME280;1100;52.014;8.540;2023-04-01T14:06:31;98432.94;;;8.96;95.58
2188;BME280;1100;52.014;8.540;2023-04-01T14:12:09;98438.94;;;8.95;95.61
2188;BME280;1100;52.014;8.540;2023-04-01T14:20:29;98443.84;;;9.00;95.90
2188;BME280;1100;52.014;8.540;2023-04-01T14:26:50;98454.44;;;9.11;96.55
2188;BME280;1100;52.014;8.540;2023-04-01T14:29:47;98464.13;;;9.16;96.63
2188;BME280;1100;52.014;8.540;2023-04-01T14:34:59;98464.22;;;9.21;96.63
2188;BME280;1100;52.014;8.540;2023-04-01T14:48:51;98483.59;;;9.31;96.22
2188;BME280;1100;52.014;8.540;2023-04-01T14:51:39;98486.66;;;9.33;96.12
2188;BME280;1100;52.014;8.540;2023-04-01T14:54:08;98487.72;;;9.35;96.43
2188;BME280;1100;52.014;8.540;2023-04-01T15:02:03;98498.44;;;9.52;96.23
2188;BME280;1100;52.014;8.540;2023-04-01T15:18:44;98521.22;;;9.56;96.34
2188;BME280;1100;52.014;8.540;2023-04-01T15:29:43;98533.47;;;9.40;96.29
2188;BME280;1100;52.014;8.540;2023-04-01T15:32:24;98540.13;;;9.33;96.11
2188;BME280;1100;52.014;8.540;2023-04-01T15:35:34;98542.44;;;9.26;96.23
2188;BME280;1100;52.014;8.540;2023-04-01T15:38:05;98547.09;;;9.19;96.22
2188;BME280;1100;52.014;8.540;2023-04-01T15:45:58;98561.59;;;9.14;96.22
2188;BME280;1100;52.014;8.540;2023-04-01T15:48:51;98560.97;;;9.10;96.11
2188;BME280;1100;52.014;8.540;2023-04-01T15:51:28;98570.22;;;9.07;96.08
2188;BME280;1100;52.014;8.540;2023-04-01T16:19:03;98613.53;;;8.95;96.53
2188;BME280;1100;52.014;8.540;2023-04-01T16:29:52;98640.19;;;8.74;96.21
2188;BME280;1100;52.014;8.540;2023-04-01T16:35:20;98638.50;;;8.57;96.08
2188;BME280;1100;52.014;8.540;2023-04-01T16:40:37;98650.00;;;8.46;96.33
2188;BME280;1100;52.014;8.540;2023-04-01T16:48:34;98658.75;;;8.45;96.51
2188;BME280;1100;52.014;8.540;2023-04-01T16:51:13;98663.06;;;8.46;96.56
2188;BME280;1100;52.014;8.540;2023-04-01T16:56:47;98677.69;;;8.46;96.59
2188;BME280;1100;52.014;8.540;2023-04-01T16:59:17;98684.00;;;8.47;96.57
2188;BME280;1100;52.014;8.540;2023-04-01T17:01:52;98684.75;;;8.47;96.71
2188;BME280;1100;52.014;8.540;2023-04-01T17:04:25;98685.41;;;8.52;96.78
2188;BME280;1100;52.014;8.540;2023-04-01T17:07:05;98692.81;;;8.55;96.76
2188;BME280;1100;52.014;8.540;2023-04-01T17:10:00;98697.56;;;8.54;96.78
2188;BME280;1100;52.014;8.540;2023-04-01T17:12:30;98704.66;;;8.55;96.75
2188;BME280;1100;52.014;8.540;2023-04-01T17:20:50;98712.81;;;8.59;96.92
2188;BME280;1100;52.014;8.540;2023-04-01T17:23:29;98717.91;;;8.60;96.94
2188;BME280;1100;52.014;8.540;2023-04-01T17:26:16;98725.88;;;8.58;96.93
2188;BME280;1100;52.014;8.540;2023-04-01T17:28:50;98741.28;;;8.59;96.99
2188;BME280;1100;52.014;8.540;2023-04-01T17:31:37;98755.13;;;8.59;96.89
2188;BME280;1100;52.014;8.540;2023-04-01T17:35:04;98759.22;;;8.45;96.39
2188;BME280;1100;52.014;8.540;2023-04-01T17:39:49;98767.69;;;8.10;96.27
2188;BME280;1100;52.014;8.540;2023-04-01T17:42:39;98785.06;;;8.01;96.60
2188;BME280;1100;52.014;8.540;2023-04-01T17:45:40;98792.97;;;7.90;96.45
2188;BME280;1100;52.014;8.540;2023-04-01T17:48:17;98795.56;;;7.84;96.48
2188;BME280;1100;52.014;8.540;2023-04-01T17:53:27;98808.81;;;7.67;96.51
2188;BME280;1100;52.014;8.540;2023-04-01T17:56:07;98821.25;;;7.62;96.10
2188;BME280;1100;52.014;8.540;2023-04-01T18:06:32;98846.66;;;7.34;96.87
2188;BME280;1100;52.014;8.540;2023-04-01T18:23:12;98889.97;;;7.15;96.88
2188;BME280;1100;52.014;8.540;2023-04-01T18:25:47;98892.38;;;7.13;97.00
2188;BME280;1100;52.014;8.540;2023-04-01T18:36:18;98924.81;;;7.00;96.95
2188;BME280;1100;52.014;8.540;2023-04-01T18:39:07;98940.59;;;6.99;97.18
2188;BME280;1100;52.014;8.540;2023-04-01T18:45:03;98948.69;;;6.93;96.90
2188;BME280;1100;52.014;8.540;2023-04-01T18:48:01;98954.75;;;6.88;96.70
2188;BME280;1100;52.014;8.540;2023-04-01T18:50:43;98964.88;;;6.78;96.53
2188;BME280;1100;52.014;8.540;2023-04-01T18:53:31;98970.97;;;6.73;96.77
2188;BME280;1100;52.014;8.540;2023-04-01T19:01:19;98990.03;;;6.54;96.75
2188;BME280;1100;52.014;8.540;2023-04-01T19:04:00;98992.13;;;6.50;96.54
2188;BME280;1100;52.014;8.540;2023-04-01T19:06:34;98998.53;;;6.47;96.67
2188;BME280;1100;52.014;8.540;2023-04-01T19:09:23;99012.84;;;6.42;96.65
2188;BME280;1100;52.014;8.540;2023-04-01T19:17:45;99032.91;;;6.29;96.79
2188;BME280;1100;52.014;8.540;2023-04-01T19:22:49;99048.13;;;6.21;96.72
2188;BME280;1100;52.014;8.540;2023-04-01T19:25:42;99044.34;;;6.15;96.62
2188;BME280;1100;52.014;8.540;2023-04-01T19:28:31;99049.16;;;6.10;96.56
2188;BME280;1100;52.014;8.540;2023-04-01T19:45:44;99087.88;;;5.90;96.78
2188;BME280;1100;52.014;8.540;2023-04-01T19:50:56;99094.78;;;5.82;96.97
2188;BME280;1100;52.014;8.540;2023-04-01T19:56:14;99112.94;;;5.79;96.78
2188;BME280;1100;52.014;8.540;2023-04-01T20:01:17;99125.69;;;5.73;96.78
2188;BME280;1100;52.014;8.540;2023-04-01T20:03:50;99133.66;;;5.71;96.61
2188;BME280;1100;52.014;8.540;2023-04-01T20:14:41;99157.22;;;5.55;96.89
2188;BME280;1100;52.014;8.540;2023-04-01T20:52:37;99252.00;;;5.21;96.93
2188;BME280;1100;52.014;8.540;2023-04-01T21:03:34;99268.81;;;5.06;96.54
2188;BME280;1100;52.014;8.540;2023-04-01T21:23:30;99310.06;;;4.86;96.59
2188;BME280;1100;52.014;8.540;2023-04-01T21:43:29;99356.06;;;4.61;96.29
2188;BME280;1100;52.014;8.540;2023-04-01T21:57:28;99378.47;;;4.36;96.50
2188;BME280;1100;52.014;8.540;2023-04-01T22:00:25;99373.78;;;4.33;96.31
2188;BME280;1100;52.014;8.540;2023-04-01T22:03:10;99384.44;;;4.27;96.22
2188;BME280;1100;52.014;8.540;2023-04-01T22:11:30;99403.84;;;4.16;96.55
2188;BME280;1100;52.014;8.540;2023-04-01T22:14:09;99408.59;;;4.16;96.46
2188;BME280;1100;52.014;8.540;2023-04-01T22:17:00;99422.75;;;4.14;96.32
2188;BME280;1100;52.014;8.540;2023-04-01T22:19:43;99423.91;;;4.13;96.29
2188;BME280;1100;52.014;8.540;2023-04-01T22:22:22;99426.72;;;4.09;96.49
2188;BME280;1100;52.014;8.540;2023-04-01T22:25:00;99432.31;;;4.02;96.25
2188;BME280;1100;52.014;8.540;2023-04-01T22:27:37;99440.19;;;4.00;96.35
2188;BME280;1100;52.014;8.540;2023-04-01T22:35:31;99449.75;;;3.84;96.06
2188;BME280;1100;52.014;8.540;2023-04-01T22:38:19;99454.16;;;3.78;96.27
2188;BME280;1100;52.014;8.540;2023-04-01T22:43:36;99457.34;;;3.73;96.51
2188;BME280;1100;52.014;8.540;2023-04-01T22:48:49;99473.84;;;3.73;96.47
2188;BME280;1100;52.014;8.540;2023-04-01T22:51:38;99478.19;;;3.70;96.11
2188;BME280;1100;52.014;8.540;2023-04-01T22:56:47;99491.19;;;3.66;96.63
2188;BME280;1100;52.014;8.540;2023-04-01T22:59:35;99499.44;;;3.66;96.55
2188;BME280;1100;52.014;8.540;2023-04-01T23:02:33;99502.59;;;3.65;96.50
2188;BME280;1100;52.014;8.540;2023-04-01T23:05:02;99503.78;;;3.64;96.33
2188;BME280;1100;52.014;8.540;2023-04-01T23:07:43;99508.09;;;3.61;96.46
2188;BME280;1100;52.014;8.540;2023-04-01T23:12:58;99516.81;;;3.56;96.54
2188;BME280;1100;52.014;8.540;2023-04-01T23:15:27;99520.31;;;3.56;96.76
2188;BME280;1100;52.014;8.540;2023-04-01T23:20:58;99528.56;;;3.56;96.37
2188;BME280;1100;52.014;8.540;2023-04-01T23:29:16;99542.28;;;3.56;96.19
2188;BME280;1100;52.014;8.540;2023-04-01T23:32:05;99551.34;;;3.53;96.34
2188;BME280;1100;52.014;8.540;2023-04-01T23:34:36;99554.53;;;3.48;96.31
2188;BME280;1100;52.014;8.540;2023-04-01T23:37:05;99563.22;;;3.43;96.51
2188;BME280;1100;52.014;8.540;2023-04-01T23:39:40;99569.50;;;3.40;96.16
2188;BME280;1100;52.014;8.540;2023-04-01T23:42:29;99572.28;;;3.36;95.91
2188;BME280;1100;52.014;8.540;2023-04-01T23:44:58;99574.66;;;3.34;96.21
2188;BME280;1100;52.014;8.540;2023-04-01T23:47:27;99579.78;;;3.28;96.42
2188;BME280;1100;52.014;8.540;2023-04-01T23:49:56;99588.00;;;3.28;96.39
2188;BME280;1100;52.014;8.540;2023-04-01T23:52:26;99591.56;;;3.29;96.28
2188;BME280;1100;52.014;8.540;2023-04-01T23:54:56;99588.00;;;3.28;96.55
2188;BME280;1100;52.014;8.540;2023-04-01T23:57:29;99597.84;;;3.22;96.23
